YQW weather

North Battleford Airport
North Battleford, Saskatchewan, Canada

Public forecast

Using degrees Celsius for public forecast. Weather courtesy of forecast.io.

Current aviation weather report (METAR) for North Battleford Airport

Retrieved 2019/10/17 13:00 UTC (56 minutes ago):

CYQW 171300Z AUTO 11012KT 9SM FEW180 02/00 A2942 RMK SLP983

Aviation forecast (TAF) for North Battleford Airport

Retrieved 2019/10/17 12:42 UTC (1 hour ago):

TAF TAF CYQW 171140Z 1712/1724 12015KT P6SM FEW140 SCT220 BECMG 1717/1719 22012G22KT RMK FCST BASED ON AUTO OBS NXT FCST BY 171800Z